• Join FlightAware (Why Join?)
  • Login
  • US Flag 
09:02AM EDT


 

Airport Tracker/Info


-or-


 

Live Flight TrackerFlight Track Log ✈ QTR722 ✈ 24-Apr-2013 ✈ OTBD - OERK / RUH

Flight Track Log - Related Links

Times and Time Zones

All times are in EDT time to prevent confusion due to time zone crossing. See the QTR722 flight status page for this flight to view local times or setup timezone preferences in your user account.

Time Position Orientation Groundspeed Altitude Reporting Facility
EDT Latitude Longitude Course Direction KTS MPH feet Rate Location/Type
04:30PM 25.2810 51.5600 352° North 135 155 1,500  Level FlightAware
04:30PM 25.3020 51.5570 353° North 165 190 2,400 1,500 Climbing FlightAware
04:31PM 25.3240 51.5540 353° North 198 228 2,900 2,160 Climbing FlightAware
04:31PM 25.3550 51.5500 353° North 228 262 4,400 2,880 Climbing FlightAware
04:32PM 25.3690 51.5430 336° Northwest 232 267 5,100 2,400 Climbing FlightAware
04:32PM 25.3770 51.5280 301° West 247 284 5,600 2,160 Climbing FlightAware
04:32PM 25.3800 51.5140 283° West 257 296 6,000 2,880 Climbing FlightAware
04:32PM 25.3810 51.4940 273° West 266 306 6,800 3,780 Climbing FlightAware
04:33PM 25.3770 51.4330 266° West 263 303 9,800 3,120 Climbing FlightAware
04:34PM 25.3700 51.3750 262° West 301 346 11,300 2,100 Climbing FlightAware
04:34PM 25.3620 51.3100 262° West 335 386 12,600 2,700 Climbing FlightAware
04:35PM 25.3520 51.2320 262° West 335 386 15,200 3,120 Climbing FlightAware
04:36PM 25.3450 51.1720 263° West 343 395 16,800 2,760 Climbing FlightAware
04:36PM 25.3350 51.0930 262° West 347 399 18,900 3,420 Climbing FlightAware
04:37PM 25.3260 51.0180 262° West 315 362 22,000 3,060 Climbing FlightAware
04:38PM 25.3240 50.9610 268° West 330 380 23,000 1,740 Climbing FlightAware
04:39PM 25.3220 50.8780 268° West 343 395 24,500 1,440 Climbing FlightAware
04:39PM 25.3230 50.7740 271° West 371 427 25,600 1,440 Climbing FlightAware
04:40PM 25.3210 50.6990 268° West 377 434 26,800 2,040 Climbing FlightAware
04:41PM 25.3180 50.6130 268° West 373 429 28,500 2,040 Climbing FlightAware
04:42PM 25.3160 50.5360 268° West 369 425 29,700 1,020 Climbing FlightAware
04:42PM 25.3130 50.4520 268° West 362 417 30,000 180 Climbing FlightAware
04:43PM 25.3110 50.3790 268° West 363 418 30,000  Level FlightAware
04:44PM 25.3080 50.3050 267° West 363 418 30,000  Level FlightAware
04:44PM 25.3060 50.2210 269° West 363 418 30,000  Level FlightAware
04:45PM 25.3040 50.1500 268° West 363 418 30,000  Level FlightAware
04:46PM 25.3030 50.0870 269° West 363 418 30,000  Level FlightAware
04:46PM 25.3020 50.0240 269° West 363 418 30,000  Level FlightAware
04:47PM 25.3010 49.9610 269° West 363 418 30,000  Level FlightAware
04:48PM 25.3000 49.8980 269° West 363 418 30,000  Level FlightAware
04:49PM 25.2990 49.8190 269° West 363 418 30,000  Level FlightAware
04:49PM 25.2980 49.7560 269° West 363 418 30,000  Level FlightAware
04:50PM 25.2970 49.6930 269° West 363 418 30,000  Level FlightAware
04:51PM 25.2810 49.5280 264° West 364 419 30,000  Level FlightAware
04:51PM 25.2760 49.4510 266° West 364 419 30,000  Level FlightAware
04:52PM 25.2660 49.3370 264° West 364 419 30,000  Level FlightAware
04:53PM 25.2580 49.2510 264° West 366 421 30,000  Level FlightAware
04:54PM 25.2500 49.1640 264° West 367 422 30,000  Level FlightAware
04:55PM 25.2430 49.0890 264° West 366 421 30,000  Level FlightAware
04:55PM 25.2360 49.0060 265° West 366 421 30,000  Level FlightAware
04:56PM 25.2290 48.9310 264° West 366 421 30,000  Level FlightAware
04:57PM 25.2210 48.8470 264° West 367 422 30,000  Level FlightAware
04:57PM 25.2130 48.7620 264° West 368 423 30,000  Level FlightAware
04:58PM 25.2040 48.6870 262° West 368 423 30,000  Level FlightAware
04:59PM 25.1930 48.6140 261° West 369 425 30,000  Level FlightAware
05:00PM 25.1790 48.5290 260° West 368 423 30,000  Level FlightAware
05:00PM 25.1680 48.4560 261° West 367 422 30,000  Level FlightAware
05:01PM 25.1560 48.3820 260° West 367 422 30,000  Level FlightAware
05:02PM 25.1420 48.2990 259° West 368 423 30,000 -420 Level FlightAware
05:02PM 25.1290 48.2150 260° West 366 421 29,400 -1,380 Descending FlightAware
05:03PM 25.1190 48.1510 260° West 362 417 28,200 -2,220 Descending FlightAware
05:04PM 25.1050 48.0700 259° West 359 413 26,500 -2,220 Descending FlightAware
05:04PM 25.0940 47.9980 260° West 351 404 25,100 -1,980 Descending FlightAware
05:05PM 25.0810 47.9220 259° West 342 394 23,700 -2,100 Descending FlightAware
05:06PM 25.0700 47.8510 260° West 341 392 22,200 -2,040 Descending FlightAware
05:06PM 25.0580 47.7830 259° West 331 381 21,000 -2,160 Descending FlightAware
05:07PM 25.0460 47.7070 260° West 335 386 19,200 -2,160 Descending FlightAware
05:08PM 25.0350 47.6410 260° West 324 373 18,000 -1,740 Descending FlightAware
05:09PM 25.0230 47.5690 260° West 313 360 16,800 -1,680 Descending FlightAware
05:09PM 25.0130 47.5080 260° West 303 349 15,700 -1,800 Descending FlightAware
05:10PM 25.0030 47.4470 260° West 298 343 14,400 -1,920 Descending FlightAware
05:11PM 24.9920 47.3820 259° West 295 339 13,000 -1,920 Descending FlightAware
05:11PM 24.9800 47.3140 259° West 289 333 11,600 -1,500 Descending FlightAware
05:12PM 24.9710 47.2580 260° West 268 308 10,900 -1,440 Descending FlightAware
05:13PM 24.9620 47.2050 259° West 270 311 9,700 -1,980 Descending FlightAware
05:13PM 24.9590 47.1840 261° West 276 318 9,100 -2,040 Descending FlightAware
05:14PM 24.9510 47.1420 258° West 277 319 8,200 -1,800 Descending FlightAware
05:14PM 24.9450 47.1070 259° West 279 321 7,500 -1,320 Descending FlightAware
05:14PM 24.9380 47.0660 259° West 266 306 7,000 -840 Descending FlightAware
05:15PM 24.9320 47.0270 260° West 248 285 6,700 -780 Descending FlightAware
05:15PM 24.9270 47.0150 245° Southwest 243 280 6,500 -960 Descending FlightAware
05:15PM 24.9160 47.0030 225° Southwest 236 272 6,300 -960 Descending FlightAware
05:16PM 24.8910 46.9800 220° Southwest 228 262 5,800 -1,020 Descending FlightAware
05:16PM 24.8710 46.9620 219° Southwest 229 264 5,400 -1,020 Descending FlightAware
05:17PM 24.8460 46.9380 221° Southwest 229 264 4,900 -720 Descending FlightAware
05:17PM 24.8340 46.9270 220° Southwest 230 265 4,900  Level FlightAware
05:17PM 24.8130 46.9080 219° Southwest 234 269 4,900  Level FlightAware
05:18PM 24.7890 46.8850 221° Southwest 216 249 4,900 -180 Level FlightAware
05:18PM 24.7790 46.8720 230° Southwest 225 259 4,800 -480 Descending FlightAware
05:18PM 24.7770 46.8610 259° West 225 259 4,700 -480 Descending FlightAware
05:19PM 24.7860 46.8320 289° West 210 242 4,500 -420 Descending FlightAware
05:19PM 24.7960 46.8180 308° West 204 235 4,400 -420 Descending FlightAware
05:19PM 24.8080 46.8090 326° Northwest 191 220 4,300 -600 Descending FlightAware
05:20PM 24.8200 46.8020 332° Northwest 190 219 4,100 -300 Descending FlightAware
05:20PM 24.8380 46.7900 329° Northwest 168 193 4,100 -360 Level FlightAware
05:21PM 24.8580 46.7770 329° Northwest 148 170 3,800 -780 Descending FlightAware
05:21PM 24.8720 46.7680 330° Northwest 131 151 3,400 -780 Descending FlightAware
05:21PM 24.8890 46.7580 332° Northwest 129 148 3,100 -600 Descending FlightAware
05:22PM 24.9030 46.7490 330° Northwest 128 147 2,800 -600 Descending FlightAware
05:22PM 24.9090 46.7450 329° Northwest 127 146 2,700 -600 Descending FlightAware
05:23PM 24.9240 46.7350 329° Northwest 127 146 2,400 -600 Descending FlightAware
05:23PM 24.9390 46.7260 331° Northwest 131 151 2,100 -600 Descending FlightAware
05:24PM 24.9530 46.7170 330° Northwest 97 112 1,900 -480 Descending FlightAware